Time;durP1;ratioP1;P1;durP2;ratioP2;P2;SDS_P1;SDS_P2;PMS_P1;PMS_P2;Temp;Humidity;BMP_temperature;BMP_pressure;BME280_temperature;BME280_humidity;BME280_pressure;Samples;Min_cycle;Max_cycle;Signal;HPM_P1;HPM_P2
2023/06/25 00:00:44;;;;;;;11.82;5.53;;;;;;;24.80;49.83;99490.63;3157411;28;20466;-69
2023/06/25 00:02:17;;;;;;;9.50;4.70;;;;;;;24.78;49.62;99489.13;3157097;28;20052;-69
2023/06/25 00:03:49;;;;;;;8.70;4.72;;;;;;;24.70;49.71;99484.66;3137642;28;20441;-69
2023/06/25 00:05:21;;;;;;;20.63;5.55;;;;;;;24.73;50.00;99498.44;3150883;28;20044;-68
2023/06/25 00:06:53;;;;;;;7.10;4.00;;;;;;;24.70;50.16;99500.63;3157442;28;20044;-68
2023/06/25 00:08:25;;;;;;;12.50;5.00;;;;;;;24.63;49.99;99499.59;3157436;28;20126;-68
2023/06/25 00:09:57;;;;;;;12.07;4.88;;;;;;;24.62;50.40;99505.94;3157583;28;20509;-68
2023/06/25 00:11:30;;;;;;;7.88;4.60;;;;;;;24.60;50.42;99505.28;3150939;28;20085;-69
2023/06/25 00:13:02;;;;;;;6.95;4.30;;;;;;;24.55;50.12;99499.59;3157494;28;20063;-68
2023/06/25 00:14:33;;;;;;;7.28;4.78;;;;;;;24.53;50.18;99497.13;3157193;28;20056;-68
2023/06/25 00:16:05;;;;;;;7.47;5.10;;;;;;;24.54;50.21;99503.28;3157101;28;20205;-68
2023/06/25 00:17:36;;;;;;;9.83;4.37;;;;;;;24.50;50.33;99500.13;3157976;28;20051;-69
2023/06/25 00:19:08;;;;;;;8.68;5.15;;;;;;;24.49;50.31;99506.41;3150067;28;20052;-69
2023/06/25 00:20:40;;;;;;;10.25;4.53;;;;;;;24.47;50.21;99506.59;3160110;28;20051;-69
2023/06/25 00:22:11;;;;;;;16.15;4.95;;;;;;;24.43;50.04;99497.31;3147609;28;20052;-69
2023/06/25 00:23:43;;;;;;;10.20;4.63;;;;;;;24.44;50.22;99511.44;3158674;28;20048;-69
2023/06/25 00:25:16;;;;;;;7.53;4.57;;;;;;;24.43;50.31;99513.28;3159955;28;20448;-69
2023/06/25 00:26:49;;;;;;;6.93;4.30;;;;;;;24.43;50.08;99513.28;3147033;28;20041;-69
2023/06/25 00:28:21;;;;;;;10.27;4.32;;;;;;;24.40;50.68;99515.38;3156523;28;20525;-69
2023/06/25 00:29:52;;;;;;;9.50;4.38;;;;;;;24.39;50.74;99511.06;3159838;28;20048;-69
2023/06/25 00:31:24;;;;;;;8.15;4.95;;;;;;;24.41;50.60;99525.03;3159998;28;20056;-69
2023/06/25 00:32:56;;;;;;;7.22;4.57;;;;;;;24.41;50.47;99517.88;3159770;28;20052;-69
2023/06/25 00:34:28;;;;;;;10.52;5.53;;;;;;;24.39;50.71;99516.38;3159978;28;20440;-68
2023/06/25 00:36:09;;;;;;;7.00;4.47;;;;;;;24.35;50.73;99505.25;3158259;28;20074;-68
2023/06/25 00:37:44;;;;;;;8.32;4.97;;;;;;;24.28;50.73;99505.06;3159762;28;20048;-68
2023/06/25 00:39:16;;;;;;;12.80;4.80;;;;;;;24.28;50.81;99506.88;3157670;28;20126;-69
2023/06/25 00:40:47;;;;;;;8.85;4.65;;;;;;;24.27;50.68;99511.38;3147227;28;20049;-68
2023/06/25 00:42:21;;;;;;;9.43;4.40;;;;;;;24.28;50.70;99510.41;3146834;28;20048;-68
2023/06/25 00:43:53;;;;;;;10.98;4.60;;;;;;;24.22;51.21;99510.19;3150142;28;20470;-68
2023/06/25 00:45:24;;;;;;;8.77;5.22;;;;;;;24.19;51.36;99515.84;3149907;28;20577;-68
2023/06/25 00:46:59;;;;;;;10.73;4.78;;;;;;;24.14;51.05;99504.88;3157456;28;20498;-69
2023/06/25 00:48:31;;;;;;;9.82;5.10;;;;;;;24.12;51.15;99513.00;3157932;28;20571;-68
2023/06/25 00:50:03;;;;;;;12.07;5.25;;;;;;;24.09;51.43;99515.19;3151254;28;20059;-70
2023/06/25 00:51:36;;;;;;;7.40;4.40;;;;;;;24.09;51.58;99521.31;3159694;28;20109;-71
2023/06/25 00:53:09;;;;;;;7.30;4.60;;;;;;;24.10;51.19;99517.66;3147153;28;20056;-70
2023/06/25 00:54:42;;;;;;;7.75;4.70;;;;;;;24.06;51.21;99514.50;3159047;28;20615;-70
2023/06/25 00:56:15;;;;;;;10.45;4.25;;;;;;;24.05;51.32;99522.66;3151436;28;20059;-70
2023/06/25 00:57:48;;;;;;;5.32;3.88;;;;;;;24.01;51.23;99513.31;3157759;28;20047;-69
2023/06/25 00:59:20;;;;;;;8.02;4.35;;;;;;;24.00;51.33;99511.66;3159581;28;20052;-69
2023/06/25 01:00:56;;;;;;;8.65;4.70;;;;;;;23.97;51.72;99512.00;3159032;28;20052;-67
2023/06/25 01:02:35;;;;;;;9.43;4.38;;;;;;;23.94;51.74;99507.81;3159513;28;20437;-68
2023/06/25 01:04:12;;;;;;;7.57;4.75;;;;;;;23.92;51.71;99512.47;3156770;28;20083;-69
2023/06/25 01:05:46;;;;;;;7.28;4.80;;;;;;;23.91;51.90;99505.50;3156522;28;20063;-69
2023/06/25 01:07:22;;;;;;;6.32;4.18;;;;;;;23.89;51.58;99504.81;3158841;28;20052;-67
2023/06/25 01:08:54;;;;;;;8.15;4.25;;;;;;;23.88;51.94;99513.78;3159133;28;20055;-68
2023/06/25 01:10:26;;;;;;;9.85;4.40;;;;;;;23.89;52.12;99506.63;3157728;28;20051;-69
2023/06/25 01:12:02;;;;;;;7.45;4.10;;;;;;;23.90;51.50;99505.63;3146796;28;20075;-69
2023/06/25 01:13:36;;;;;;;8.32;4.45;;;;;;;23.89;51.62;99506.63;3153593;28;20412;-69
2023/06/25 01:15:09;;;;;;;7.57;4.38;;;;;;;23.86;52.02;99506.97;3159278;28;20044;-69
2023/06/25 01:16:41;;;;;;;;;;;;;;;23.69;51.99;99503.38;3159454;28;20094;-69
2023/06/25 01:18:13;;;;;;;6.97;4.53;;;;;;;23.74;51.87;99501.94;3157374;28;20385;-69
2023/06/25 01:19:45;;;;;;;10.88;4.65;;;;;;;23.73;52.06;99505.59;3151128;28;20055;-68
2023/06/25 01:21:18;;;;;;;9.68;4.95;;;;;;;23.75;52.10;99502.75;3159462;28;20044;-70
2023/06/25 01:22:52;;;;;;;7.38;4.30;;;;;;;23.70;51.76;99500.59;3159188;28;20040;-69
2023/06/25 01:24:22;;;;;;;7.18;4.20;;;;;;;23.67;52.10;99500.91;3156803;28;20117;-69
2023/06/25 01:25:55;;;;;;;7.55;4.20;;;;;;;23.65;52.17;99504.72;3146393;28;20113;-70
2023/06/25 01:27:27;;;;;;;10.88;5.03;;;;;;;23.63;52.03;99494.22;3147754;28;20048;-70
2023/06/25 01:28:58;;;;;;;10.32;4.38;;;;;;;23.61;52.18;99496.22;3158519;28;20554;-70
2023/06/25 01:30:31;;;;;;;6.40;4.63;;;;;;;23.61;52.63;99505.03;3158806;28;20077;-70
2023/06/25 01:32:06;;;;;;;10.93;4.45;;;;;;;23.56;52.43;99499.34;3159229;28;20063;-70
2023/06/25 01:33:38;;;;;;;7.75;4.82;;;;;;;23.54;52.72;99506.66;3159191;28;20449;-70
2023/06/25 01:35:10;;;;;;;5.47;4.18;;;;;;;23.48;52.63;99494.00;3158720;28;20131;-70
2023/06/25 01:36:43;;;;;;;9.93;3.97;;;;;;;23.53;52.27;99505.00;3147396;28;20509;-70
2023/06/25 01:38:16;;;;;;;8.77;4.55;;;;;;;23.54;52.81;99501.31;3154957;28;20083;-69
2023/06/25 01:39:50;;;;;;;11.90;4.90;;;;;;;23.54;52.83;99500.50;3152969;28;20052;-69
2023/06/25 01:41:21;;;;;;;12.77;5.05;;;;;;;23.51;52.68;99500.81;3154127;28;20409;-70
2023/06/25 01:42:53;;;;;;;12.88;4.50;;;;;;;23.48;52.74;99504.63;3159147;28;20073;-68
2023/06/25 01:44:29;;;;;;;7.95;4.07;;;;;;;23.52;52.79;99499.84;3152627;28;20127;-68
2023/06/25 01:46:01;;;;;;;8.85;4.93;;;;;;;23.49;52.95;99503.66;3151567;28;20048;-69
2023/06/25 01:47:33;;;;;;;6.32;4.40;;;;;;;23.43;52.64;99498.97;3148319;28;20529;-68
2023/06/25 01:49:04;;;;;;;11.50;4.93;;;;;;;23.49;53.14;99500.16;3158939;28;20051;-67
2023/06/25 01:50:35;;;;;;;9.25;4.53;;;;;;;23.47;52.97;99504.81;3158504;28;20075;-69
2023/06/25 01:52:07;;;;;;;11.27;4.95;;;;;;;23.46;52.66;99500.50;3158830;28;20052;-69
2023/06/25 01:53:40;;;;;;;9.65;4.78;;;;;;;23.46;52.86;99508.47;3158974;28;20051;-70
2023/06/25 01:55:12;;;;;;;7.20;4.80;;;;;;;23.42;52.86;99512.41;3159070;28;20052;-70
2023/06/25 01:56:44;;;;;;;7.75;4.05;;;;;;;23.43;52.71;99506.13;3146217;28;20058;-68
2023/06/25 01:58:16;;;;;;;6.50;4.22;;;;;;;23.43;53.13;99511.44;3146551;28;20063;-68
2023/06/25 01:59:48;;;;;;;8.45;4.88;;;;;;;23.39;53.07;99502.94;3141662;28;20585;-69
2023/06/25 02:01:20;;;;;;;9.15;5.03;;;;;;;23.38;53.39;99503.94;3158357;28;20047;-69
2023/06/25 02:02:52;;;;;;;8.13;4.70;;;;;;;23.37;53.47;99500.44;3158605;28;20051;-69
2023/06/25 02:04:23;;;;;;;10.63;5.15;;;;;;;23.39;53.02;99494.97;3148025;28;20101;-68
2023/06/25 02:05:55;;;;;;;9.68;4.43;;;;;;;23.36;53.18;99493.44;3156315;28;20051;-69
2023/06/25 02:07:26;;;;;;;10.63;4.55;;;;;;;23.36;53.36;99500.59;3158602;28;20055;-69
2023/06/25 02:08:59;;;;;;;10.13;4.47;;;;;;;23.34;53.33;99498.09;3158758;28;20128;-71
2023/06/25 02:10:32;;;;;;;8.05;4.68;;;;;;;23.30;53.69;99482.63;3156433;28;20059;-70
2023/06/25 02:12:05;;;;;;;8.38;4.28;;;;;;;23.31;53.40;99490.44;3145914;28;20052;-72
2023/06/25 02:13:37;;;;;;;6.32;4.45;;;;;;;23.29;53.39;99484.47;3151985;28;20433;-69
2023/06/25 02:15:09;;;;;;;7.55;5.28;;;;;;;23.32;53.54;99483.31;3158406;28;20059;-69
2023/06/25 02:16:41;;;;;;;7.57;4.80;;;;;;;23.33;53.75;99493.75;3158692;28;20131;-69
2023/06/25 02:18:13;;;;;;;9.45;4.47;;;;;;;23.32;54.01;99486.78;3156479;28;20126;-69
2023/06/25 02:19:44;;;;;;;9.25;4.65;;;;;;;23.33;53.80;99484.97;3149609;28;20051;-69
2023/06/25 02:21:17;;;;;;;8.00;4.40;;;;;;;23.32;54.29;99491.28;3158318;28;20060;-70
2023/06/25 02:22:50;;;;;;;7.32;4.75;;;;;;;23.29;54.18;99489.78;3150587;28;20425;-69
2023/06/25 02:24:23;;;;;;;8.63;4.65;;;;;;;23.29;54.02;99487.13;3158405;28;20589;-70
2023/06/25 02:25:54;;;;;;;;;;;;;;;23.12;54.17;99496.81;3153557;28;20139;-70
2023/06/25 02:27:25;;;;;;;11.18;4.72;;;;;;;23.16;54.05;99489.38;3145954;28;19931;-70
2023/06/25 02:28:58;;;;;;;9.73;5.78;;;;;;;23.21;54.26;99495.03;3148895;28;20075;-70
2023/06/25 02:30:30;;;;;;;8.93;4.70;;;;;;;23.22;54.16;99494.06;3133666;28;20132;-70
2023/06/25 02:32:02;;;;;;;7.67;5.03;;;;;;;23.23;54.16;99497.56;3156832;28;20043;-70
2023/06/25 02:33:34;;;;;;;7.57;4.90;;;;;;;23.23;54.80;99492.25;3147151;28;20899;-70
2023/06/25 02:35:06;;;;;;;8.68;4.70;;;;;;;23.23;54.46;99490.41;3156688;28;20048;-70
2023/06/25 02:36:38;;;;;;;8.25;4.47;;;;;;;23.25;54.89;99490.22;3146411;28;20049;-70
2023/06/25 02:38:09;;;;;;;10.02;5.07;;;;;;;23.26;54.56;99484.78;3155147;28;20105;-70
2023/06/25 02:39:42;;;;;;;6.75;4.78;;;;;;;23.26;55.02;99481.28;3153313;28;20506;-70
2023/06/25 02:41:13;;;;;;;9.40;4.97;;;;;;;23.21;54.51;99476.44;3144499;28;20414;-69
2023/06/25 02:42:45;;;;;;;8.93;5.07;;;;;;;23.23;54.99;99478.94;3152563;28;20055;-70
2023/06/25 02:44:17;;;;;;;9.02;4.55;;;;;;;23.21;54.90;99478.25;3158133;28;20052;-70
2023/06/25 02:45:48;;;;;;;8.98;5.65;;;;;;;23.21;55.18;99487.06;3150376;28;20056;-70
2023/06/25 02:47:20;;;;;;;8.27;5.07;;;;;;;23.19;54.98;99483.75;3155917;28;20044;-69
2023/06/25 02:48:52;;;;;;;8.93;5.18;;;;;;;23.19;54.97;99486.41;3157842;28;20059;-69
2023/06/25 02:50:24;;;;;;;9.50;5.25;;;;;;;23.17;55.47;99497.19;3161092;28;20766;-69
2023/06/25 02:51:55;;;;;;;11.43;5.60;;;;;;;23.17;55.14;99493.69;3170961;28;20043;-68
2023/06/25 02:53:27;;;;;;;16.80;5.43;;;;;;;23.16;55.43;99487.56;3170712;28;20108;-68
2023/06/25 02:55:00;;;;;;;9.18;5.53;;;;;;;23.20;55.24;99489.91;3170999;28;20056;-68
2023/06/25 02:56:32;;;;;;;9.13;4.88;;;;;;;23.17;54.99;99485.72;3160155;28;20044;-68
2023/06/25 02:58:03;;;;;;;10.40;5.20;;;;;;;23.21;54.93;99496.88;3165149;28;20044;-68
2023/06/25 02:59:35;;;;;;;7.80;5.43;;;;;;;23.21;55.01;99487.06;3170650;28;20044;-68
2023/06/25 03:01:07;;;;;;;10.38;5.00;;;;;;;23.23;55.03;99492.25;3170386;28;20044;-68
2023/06/25 03:02:38;;;;;;;13.70;4.80;;;;;;;23.25;55.13;99492.88;3170860;28;20063;-68
2023/06/25 03:04:10;;;;;;;15.35;5.38;;;;;;;23.23;55.31;99489.56;3167639;28;20048;-69
2023/06/25 03:05:42;;;;;;;6.78;4.80;;;;;;;23.23;55.47;99493.06;3167236;28;20096;-68
2023/06/25 03:07:14;;;;;;;10.88;5.60;;;;;;;23.25;55.46;99490.22;3170393;28;20117;-68
2023/06/25 03:08:46;;;;;;;8.90;5.07;;;;;;;23.27;55.31;99491.75;3170842;28;20055;-68
2023/06/25 03:10:20;;;;;;;9.98;5.10;;;;;;;23.28;55.58;99495.22;3170578;28;20520;-69
2023/06/25 03:11:52;;;;;;;8.80;5.10;;;;;;;23.27;55.77;99494.41;3170580;28;20504;-69
2023/06/25 03:13:23;;;;;;;9.50;4.80;;;;;;;23.29;56.07;99486.28;3170626;28;20043;-68
2023/06/25 03:14:54;;;;;;;10.23;4.75;;;;;;;23.26;56.36;99487.44;3170621;28;20047;-69
2023/06/25 03:16:26;;;;;;;11.73;4.95;;;;;;;23.26;56.77;99495.41;3170514;28;20044;-68
2023/06/25 03:17:58;;;;;;;9.38;4.10;;;;;;;23.27;57.00;99494.41;3170606;28;20048;-69
2023/06/25 03:19:30;;;;;;;14.52;4.65;;;;;;;23.28;56.63;99487.25;3150817;28;20070;-69
2023/06/25 03:21:00;;;;;;;8.68;4.35;;;;;;;23.30;57.34;99487.94;3170570;28;20108;-69
2023/06/25 03:22:32;;;;;;;9.25;4.63;;;;;;;23.28;57.40;99493.44;3170082;28;20500;-68
2023/06/25 03:24:05;;;;;;;11.98;4.70;;;;;;;23.28;57.30;99490.78;3170333;28;20054;-68
2023/06/25 03:25:38;;;;;;;10.60;4.55;;;;;;;23.29;57.50;99483.63;3169346;28;20062;-68
2023/06/25 03:27:10;;;;;;;10.30;4.88;;;;;;;23.28;57.53;99492.56;3170347;28;20073;-68
2023/06/25 03:28:41;;;;;;;8.55;4.63;;;;;;;23.29;57.93;99489.78;3165563;28;20518;-68
2023/06/25 03:30:13;;;;;;;8.45;4.75;;;;;;;23.29;58.26;99489.78;3148021;28;20531;-68
2023/06/25 03:31:45;;;;;;;7.97;4.70;;;;;;;23.29;58.40;99496.91;3162477;28;20047;-68
2023/06/25 03:33:17;;;;;;;9.13;4.75;;;;;;;23.29;58.62;99488.94;3166043;28;20101;-68
2023/06/25 03:34:48;;;;;;;7.53;5.03;;;;;;;23.28;58.48;99487.25;3165913;28;20052;-67
2023/06/25 03:36:20;;;;;;;9.88;5.10;;;;;;;23.27;58.94;99490.91;3169771;28;20123;-68
2023/06/25 03:37:51;;;;;;;8.48;4.97;;;;;;;23.25;58.80;99495.53;3170356;28;20043;-69
2023/06/25 03:39:23;;;;;;;11.52;4.93;;;;;;;23.23;59.27;99490.41;3167735;28;20048;-69
2023/06/25 03:40:56;;;;;;;7.85;5.50;;;;;;;23.22;59.08;99499.38;3157707;28;20052;-70
2023/06/25 03:42:28;;;;;;;8.85;5.60;;;;;;;23.17;59.25;99488.38;3169336;28;20051;-69
2023/06/25 03:43:59;;;;;;;10.43;6.03;;;;;;;23.17;59.46;99493.69;3170081;28;20436;-68
2023/06/25 03:45:31;;;;;;;12.60;6.40;;;;;;;23.16;59.72;99498.19;3170356;28;20044;-69
2023/06/25 03:47:02;;;;;;;11.52;6.43;;;;;;;23.17;59.63;99501.66;3165494;28;20378;-69
2023/06/25 03:48:34;;;;;;;12.52;6.75;;;;;;;23.15;59.95;99498.31;3169828;28;20569;-70
2023/06/25 03:50:05;;;;;;;9.07;6.30;;;;;;;23.12;59.79;99503.94;3166445;28;20047;-72
2023/06/25 03:51:37;;;;;;;12.43;5.93;;;;;;;23.13;60.10;99497.63;3170374;28;20055;-72
2023/06/25 03:53:09;;;;;;;9.55;6.50;;;;;;;23.11;60.40;99494.31;3169832;28;20555;-71
2023/06/25 03:54:41;;;;;;;10.45;6.28;;;;;;;23.08;60.47;99492.81;3170174;28;20444;-73
2023/06/25 03:56:14;;;;;;;10.05;6.15;;;;;;;23.08;60.61;99486.69;3164197;28;20047;-73
2023/06/25 03:57:47;;;;;;;11.02;6.30;;;;;;;23.05;60.58;99494.97;3170127;28;20047;-70
2023/06/25 03:59:17;;;;;;;11.57;5.97;;;;;;;23.04;60.50;99494.13;3170124;28;20113;-70
2023/06/25 04:00:49;;;;;;;8.60;5.57;;;;;;;23.06;60.73;99491.31;3170333;28;20134;-70
2023/06/25 04:02:21;;;;;;;10.55;6.35;;;;;;;23.07;60.65;99487.66;3169979;28;20433;-70
2023/06/25 04:03:53;;;;;;;11.77;6.45;;;;;;;23.05;60.79;99485.16;3169286;28;20047;-70
2023/06/25 04:05:24;;;;;;;12.73;5.85;;;;;;;23.05;61.31;99487.00;3164008;28;20574;-69
2023/06/25 04:06:55;;;;;;;12.50;5.95;;;;;;;23.05;61.32;99489.66;3170009;28;20059;-69
2023/06/25 04:08:27;;;;;;;9.30;6.13;;;;;;;23.09;60.97;99491.00;3169638;28;20443;-69
2023/06/25 04:09:59;;;;;;;11.80;6.13;;;;;;;23.09;61.49;99486.50;3169231;28;20062;-71
2023/06/25 04:11:32;;;;;;;11.52;7.15;;;;;;;23.14;61.20;99481.56;3167096;28;20051;-69
2023/06/25 04:13:04;;;;;;;;;;;;;;;22.98;61.34;99486.75;3170456;28;20104;-70
2023/06/25 04:14:36;;;;;;;11.25;7.28;;;;;;;23.07;61.61;99479.69;3169074;28;19924;-71
2023/06/25 04:16:14;;;;;;;11.05;5.78;;;;;;;23.15;61.47;99485.03;3170018;28;20105;-70
2023/06/25 04:17:47;;;;;;;10.43;6.20;;;;;;;23.22;61.10;99493.19;3169466;28;20054;-70
2023/06/25 04:19:19;;;;;;;;;;;;;;;23.08;61.30;99494.66;3167459;28;20060;-72
2023/06/25 04:20:50;;;;;;;15.15;10.38;;;;;;;23.16;61.37;99484.91;3169559;28;19930;-72
2023/06/25 04:22:22;;;;;;;7.78;5.47;;;;;;;23.23;61.01;99481.59;3169452;28;20108;-69
2023/06/25 04:23:54;;;;;;;10.65;5.18;;;;;;;23.27;61.11;99481.13;3170018;28;20047;-69
2023/06/25 04:25:26;;;;;;;8.23;4.90;;;;;;;23.29;61.52;99479.13;3165345;28;20412;-69
2023/06/25 04:26:59;;;;;;;7.70;5.65;;;;;;;23.33;60.90;99477.81;3157553;28;20052;-69
2023/06/25 04:28:31;;;;;;;7.45;5.22;;;;;;;23.35;61.01;99485.66;3167765;28;20043;-70
2023/06/25 04:30:02;;;;;;;8.27;5.30;;;;;;;23.37;61.34;99476.53;3165125;28;20072;-70
2023/06/25 04:31:34;;;;;;;6.60;4.63;;;;;;;23.39;61.01;99482.50;3169714;28;20068;-67
2023/06/25 04:33:06;;;;;;;10.65;4.82;;;;;;;23.38;61.26;99478.19;3170024;28;20625;-66
2023/06/25 04:34:38;;;;;;;6.00;3.88;;;;;;;23.41;61.10;99481.53;3169663;28;20573;-66
2023/06/25 04:36:11;;;;;;;8.38;4.32;;;;;;;23.45;61.01;99489.00;3169993;28;20097;-65
2023/06/25 04:37:43;;;;;;;6.20;3.97;;;;;;;23.44;61.27;99479.38;3169869;28;20058;-67
2023/06/25 04:39:15;;;;;;;7.97;4.55;;;;;;;23.41;61.20;99476.22;3168610;28;20043;-66
2023/06/25 04:40:47;;;;;;;6.72;3.55;;;;;;;23.50;60.96;99489.38;3161016;28;20794;-67
2023/06/25 04:42:20;;;;;;;6.45;3.70;;;;;;;23.49;61.10;99482.41;3170045;28;20056;-70
2023/06/25 04:43:52;;;;;;;;;;;;;;;23.39;60.85;99486.97;3170716;28;20128;-69
2023/06/25 04:45:24;;;;;;;7.03;3.78;;;;;;;23.47;61.21;99483.53;3169899;28;19984;-68
2023/06/25 04:46:56;;;;;;;6.50;4.00;;;;;;;23.53;61.15;99497.03;3167143;28;20040;-69
2023/06/25 04:48:27;;;;;;;5.45;3.85;;;;;;;23.58;60.85;99489.41;3169831;28;20052;-70
2023/06/25 04:49:59;;;;;;;5.85;4.03;;;;;;;23.64;61.05;99489.75;3165939;28;20483;-68
2023/06/25 04:51:31;;;;;;;6.85;4.10;;;;;;;23.71;60.44;99493.47;3169673;28;20051;-69
2023/06/25 04:53:02;;;;;;;11.40;3.80;;;;;;;23.74;60.76;99496.63;3169971;28;20055;-69
2023/06/25 04:54:34;;;;;;;6.20;3.40;;;;;;;23.77;60.72;99498.97;3169165;28;20048;-70
2023/06/25 04:56:05;;;;;;;23.45;13.23;;;;;;;23.84;60.48;99509.81;3162375;28;20044;-70
2023/06/25 04:57:40;;;;;;;13.57;6.97;;;;;;;23.88;60.33;99513.78;3168755;28;20063;-70
2023/06/25 04:59:11;;;;;;;49.08;32.13;;;;;;;23.92;60.61;99512.47;3169784;28;20039;-69
2023/06/25 05:00:43;;;;;;;26.75;15.23;;;;;;;23.98;60.37;99514.47;3169864;28;20055;-72
2023/06/25 05:02:15;;;;;;;9.95;3.80;;;;;;;24.08;59.80;99519.66;3169750;28;20054;-73
2023/06/25 05:03:47;;;;;;;6.95;4.05;;;;;;;24.14;59.55;99518.19;3169903;28;20058;-68
2023/06/25 05:05:19;;;;;;;5.85;4.03;;;;;;;24.23;59.26;99522.53;3169140;28;20056;-69
2023/06/25 05:06:51;;;;;;;8.85;3.97;;;;;;;24.30;59.02;99529.66;3171936;28;20112;-69
2023/06/25 05:08:23;;;;;;;6.13;4.00;;;;;;;24.36;58.81;99527.34;3171769;28;20126;-76
2023/06/25 05:09:55;;;;;;;12.55;4.22;;;;;;;24.39;58.50;99532.34;3172056;28;20064;-76
2023/06/25 05:11:26;;;;;;;6.97;4.15;;;;;;;24.40;58.96;99529.53;3169507;28;20421;-79
2023/06/25 05:13:00;;;;;;;7.85;4.20;;;;;;;24.48;58.74;99529.56;3171742;28;20052;-80
2023/06/25 05:14:32;;;;;;;8.98;4.88;;;;;;;24.54;58.61;99522.72;3171823;28;20076;-72
2023/06/25 05:16:04;;;;;;;11.75;5.00;;;;;;;24.60;58.03;99521.25;3172042;28;20432;-76
2023/06/25 05:17:36;;;;;;;11.10;4.55;;;;;;;24.69;57.87;99528.22;3165214;28;20044;-77
2023/06/25 05:19:08;;;;;;;10.70;4.60;;;;;;;24.77;58.03;99524.75;3154721;28;20098;-77
2023/06/25 05:20:39;;;;;;;7.97;4.97;;;;;;;24.80;57.96;99521.75;3153234;28;20061;-76
2023/06/25 05:22:11;;;;;;;10.73;5.43;;;;;;;24.88;57.54;99525.22;3160172;28;20048;-75
2023/06/25 05:23:44;;;;;;;9.93;5.13;;;;;;;24.92;57.89;99513.22;3170741;28;20070;-76
2023/06/25 05:25:16;;;;;;;10.85;5.70;;;;;;;24.97;57.84;99523.41;3170766;28;20464;-76
2023/06/25 05:26:48;;;;;;;10.52;5.20;;;;;;;25.03;57.68;99519.22;3146046;28;20048;-75
2023/06/25 05:28:21;;;;;;;14.20;5.70;;;;;;;25.10;56.95;99526.34;3171979;28;20508;-76
2023/06/25 05:29:53;;;;;;;9.55;6.00;;;;;;;25.12;56.73;99524.34;3171892;28;20511;-77
2023/06/25 05:31:25;;;;;;;10.07;5.95;;;;;;;25.15;56.89;99524.06;3171532;28;20047;-76
2023/06/25 05:32:57;;;;;;;7.72;5.38;;;;;;;25.18;56.62;99528.22;3171869;28;20105;-76
2023/06/25 05:34:29;;;;;;;13.40;6.78;;;;;;;25.19;56.56;99529.88;3171554;28;20051;-76
2023/06/25 05:36:00;;;;;;;14.70;5.65;;;;;;;25.23;56.10;99535.69;3171262;28;20117;-76
2023/06/25 05:37:32;;;;;;;11.10;6.82;;;;;;;25.25;55.76;99531.84;3171601;28;20377;-76
2023/06/25 05:39:04;;;;;;;13.10;7.22;;;;;;;25.29;55.75;99532.34;3171670;28;20040;-76
2023/06/25 05:40:36;;;;;;;10.73;6.75;;;;;;;25.34;55.50;99532.66;3171562;28;20051;-75
2023/06/25 05:42:08;;;;;;;10.93;6.45;;;;;;;25.40;55.73;99534.63;3171721;28;20043;-76
2023/06/25 05:43:41;;;;;;;9.63;6.72;;;;;;;25.45;55.12;99532.28;3171400;28;20066;-76
2023/06/25 05:45:13;;;;;;;;;;;;;;;25.32;55.78;99526.66;3171981;28;20058;-77
2023/06/25 05:46:44;;;;;;;10.63;6.05;;;;;;;25.40;55.54;99530.13;3148557;28;19927;-76
2023/06/25 05:48:16;;;;;;;10.30;6.07;;;;;;;25.47;55.45;99527.63;3170936;28;20048;-76
2023/06/25 05:49:48;;;;;;;9.77;6.05;;;;;;;25.53;54.93;99523.44;3169161;28;20520;-77
2023/06/25 05:51:20;;;;;;;10.93;5.82;;;;;;;25.57;55.39;99517.59;3169493;28;20055;-76
2023/06/25 05:52:52;;;;;;;8.60;5.38;;;;;;;25.61;55.14;99523.41;3171542;28;20047;-76
2023/06/25 05:54:24;;;;;;;8.80;5.53;;;;;;;25.63;54.88;99519.56;3171497;28;20116;-76
2023/06/25 05:55:56;;;;;;;11.10;5.88;;;;;;;25.69;55.23;99518.03;3171479;28;20505;-76
2023/06/25 05:57:28;;;;;;;8.52;5.05;;;;;;;25.75;55.23;99524.50;3171585;28;20048;-76
2023/06/25 05:59:01;;;;;;;8.80;4.70;;;;;;;25.84;55.20;99518.16;3171459;28;20047;-77
2023/06/25 06:00:33;;;;;;;;;;;;;;;25.77;54.94;99526.00;3172005;28;20047;-77
2023/06/25 06:02:07;;;;;;;10.25;4.95;;;;;;;25.90;55.04;99528.13;3168715;28;20285;-77
2023/06/25 06:03:40;;;;;;;13.07;5.00;;;;;;;25.99;55.13;99520.91;3159563;28;20056;-77
2023/06/25 06:05:11;;;;;;;12.85;4.60;;;;;;;26.01;54.77;99525.06;3159519;28;20050;-77
2023/06/25 06:06:46;;;;;;;10.85;4.57;;;;;;;26.04;54.60;99523.91;3157255;28;20436;-77
2023/06/25 06:08:18;;;;;;;8.32;4.43;;;;;;;26.07;54.88;99524.38;3161451;28;20043;-77
2023/06/25 06:09:52;;;;;;;8.20;4.15;;;;;;;26.13;54.33;99522.84;3171252;28;20039;-76
2023/06/25 06:11:24;;;;;;;6.47;4.00;;;;;;;26.19;54.38;99521.31;3170776;28;20058;-75
2023/06/25 06:12:56;;;;;;;7.80;4.05;;;;;;;26.23;54.63;99519.94;3171282;28;20056;-75
2023/06/25 06:14:29;;;;;;;8.98;4.50;;;;;;;26.32;54.04;99522.38;3171020;28;20055;-75
2023/06/25 06:16:01;;;;;;;;;;;;;;;26.23;54.28;99520.75;3171903;28;20047;-75
2023/06/25 06:17:33;;;;;;;6.78;4.18;;;;;;;26.36;54.19;99516.69;3162578;28;19920;-76
2023/06/25 06:19:05;;;;;;;8.27;3.95;;;;;;;26.46;53.86;99523.44;3161512;28;20097;-77
2023/06/25 06:20:37;;;;;;;8.55;4.38;;;;;;;26.53;53.76;99519.09;3170604;28;20060;-76
2023/06/25 06:22:08;;;;;;;7.70;4.55;;;;;;;26.64;53.63;99517.00;3166000;28;20055;-75
2023/06/25 06:23:40;;;;;;;11.63;4.70;;;;;;;26.69;53.09;99518.13;3169102;28;20440;-77
2023/06/25 06:25:12;;;;;;;8.70;4.60;;;;;;;26.68;53.07;99510.25;3171039;28;20056;-77
2023/06/25 06:26:44;;;;;;;7.20;4.30;;;;;;;26.74;52.89;99512.25;3170833;28;20486;-74
2023/06/25 06:28:16;;;;;;;10.20;4.70;;;;;;;26.76;52.77;99520.88;3171408;28;20051;-77
2023/06/25 06:29:49;;;;;;;8.50;4.00;;;;;;;26.79;52.49;99512.50;3170879;28;20051;-78
2023/06/25 06:31:22;;;;;;;;;;;;;;;26.65;53.04;99524.84;3171221;28;20136;-77
2023/06/25 06:32:54;;;;;;;10.23;4.20;;;;;;;26.69;52.43;99520.78;3171386;28;20324;-77
2023/06/25 06:34:25;;;;;;;5.97;4.18;;;;;;;26.74;51.81;99515.75;3170812;28;20501;-78
2023/06/25 06:35:57;;;;;;;10.55;4.20;;;;;;;26.85;51.76;99516.31;3170579;28;20055;-77
2023/06/25 06:37:29;;;;;;;11.10;4.72;;;;;;;26.90;51.56;99517.41;3171201;28;20047;-77
2023/06/25 06:39:01;;;;;;;9.63;3.58;;;;;;;26.90;51.39;99509.41;3167549;28;20051;-77
2023/06/25 06:40:33;;;;;;;7.47;3.65;;;;;;;26.92;51.25;99503.91;3156923;28;20056;-78
2023/06/25 06:42:05;;;;;;;10.95;4.10;;;;;;;27.03;51.27;99505.28;3158392;28;20078;-77
2023/06/25 06:43:37;;;;;;;8.85;3.92;;;;;;;27.11;51.03;99511.38;3169740;28;20051;-77
2023/06/25 06:45:11;;;;;;;6.03;3.53;;;;;;;27.19;50.61;99505.97;3158027;28;20124;-77
2023/06/25 06:46:44;;;;;;;7.55;4.45;;;;;;;27.27;50.54;99504.22;3155971;28;20039;-76
2023/06/25 06:48:15;;;;;;;9.80;3.95;;;;;;;27.33;50.52;99500.78;3169043;28;20104;-78
2023/06/25 06:49:47;;;;;;;7.55;4.00;;;;;;;27.38;50.42;99504.56;3167723;28;20536;-77
2023/06/25 06:51:19;;;;;;;9.93;4.05;;;;;;;27.41;50.15;99500.69;3168118;28;20067;-77
2023/06/25 06:52:51;;;;;;;9.52;4.18;;;;;;;27.40;50.28;99499.06;3170470;28;20051;-78
2023/06/25 06:54:23;;;;;;;12.63;4.22;;;;;;;27.43;50.10;99504.03;3170458;28;20596;-77
2023/06/25 06:55:55;;;;;;;8.00;4.05;;;;;;;27.46;50.33;99503.66;3169877;28;20055;-77
2023/06/25 06:57:29;;;;;;;10.45;4.38;;;;;;;27.44;49.80;99506.50;3170098;28;20043;-77
2023/06/25 06:59:01;;;;;;;8.75;4.28;;;;;;;27.33;49.86;99496.31;3170309;28;20436;-78
2023/06/25 07:00:35;;;;;;;7.93;4.85;;;;;;;27.31;49.82;99489.47;3170592;28;20074;-78
2023/06/25 07:02:06;;;;;;;;;;;;;;;27.09;50.28;99493.84;3164813;28;20055;-77
2023/06/25 07:03:38;;;;;;;8.88;4.75;;;;;;;27.10;50.54;99488.34;3170969;28;19920;-77
2023/06/25 07:05:10;;;;;;;10.93;4.72;;;;;;;27.19;50.75;99486.44;3163435;28;20520;-77
2023/06/25 07:06:42;;;;;;;9.70;4.80;;;;;;;27.29;50.29;99489.66;3170857;28;20060;-77
2023/06/25 07:08:14;;;;;;;7.38;4.38;;;;;;;27.41;50.01;99493.50;3170547;28;20051;-78
2023/06/25 07:09:50;;;;;;;7.43;4.25;;;;;;;27.50;49.94;99486.22;3170586;28;20055;-77
2023/06/25 07:11:22;;;;;;;11.55;5.13;;;;;;;27.54;49.59;99486.66;3170425;28;20497;-77
2023/06/25 07:12:54;;;;;;;8.77;4.32;;;;;;;27.60;49.41;99477.91;3169230;28;20051;-77